Time;durP1;ratioP1;P1;durP2;ratioP2;P2;SDS_P1;SDS_P2;PMS_P1;PMS_P2;Temp;Humidity;BMP_temperature;BMP_pressure;BME280_temperature;BME280_humidity;BME280_pressure;Samples;Min_cycle;Max_cycle;Signal;HPM_P1;HPM_P2
2022/08/28 00:00:40;;;;;;;23.80;6.20;;;;;;;22.13;43.66;100049.94;117312;1186;21853;-66
2022/08/28 00:03:09;;;;;;;26.00;6.70;;;;;;;22.12;43.67;100050.17;117337;1186;23605;-60
2022/08/28 00:05:38;;;;;;;23.40;5.60;;;;;;;22.06;43.72;100052.41;117327;1184;21873;-65
2022/08/28 00:08:07;;;;;;;29.30;7.60;;;;;;;21.97;43.74;100050.52;117298;1182;23570;-60
2022/08/28 00:10:35;;;;;;;30.00;7.40;;;;;;;21.91;43.91;100050.85;117309;1184;21895;-65
2022/08/28 00:13:02;;;;;;;30.40;5.70;;;;;;;21.87;43.96;100054.70;117356;1186;22638;-60
2022/08/28 00:15:34;;;;;;;27.60;6.90;;;;;;;21.82;44.03;100050.95;117298;1186;22658;-60
2022/08/28 00:18:02;;;;;;;23.20;6.10;;;;;;;21.78;44.14;100045.65;117274;1186;22641;-60
2022/08/28 00:20:30;;;;;;;27.10;6.40;;;;;;;21.76;44.20;100044.30;117333;1185;23583;-60
2022/08/28 00:22:58;;;;;;;27.30;5.80;;;;;;;21.76;44.24;100043.08;117268;1183;21864;-59
2022/08/28 00:25:26;;;;;;;20.80;5.70;;;;;;;21.77;44.37;100040.89;117391;1186;23615;-60
2022/08/28 00:27:56;;;;;;;34.30;7.00;;;;;;;21.79;44.45;100038.09;117360;1186;21855;-65
2022/08/28 00:30:34;;;;;;;28.30;6.10;;;;;;;21.80;44.37;100036.80;117302;1183;23475;-66
2022/08/28 00:33:08;;;;;;;24.50;6.00;;;;;;;21.80;44.41;100039.61;117279;1182;22612;-66
2022/08/28 00:35:39;;;;;;;25.10;6.00;;;;;;;21.79;44.46;100039.64;117083;1187;21869;-66
2022/08/28 00:38:10;;;;;;;27.70;6.00;;;;;;;21.78;44.42;100039.40;117015;1187;22014;-60
2022/08/28 00:40:38;;;;;;;25.70;6.40;;;;;;;21.76;44.47;100040.40;116930;1187;22324;-65
2022/08/28 00:43:06;;;;;;;28.00;6.30;;;;;;;21.74;44.50;100035.58;117269;1186;22163;-66
2022/08/28 00:45:34;;;;;;;25.20;6.70;;;;;;;21.73;44.63;100034.94;117187;1186;21878;-65
2022/08/28 00:48:06;;;;;;;29.00;7.10;;;;;;;21.73;44.67;100035.98;117306;1186;22098;-66
2022/08/28 00:52:04;;;;;;;30.20;7.90;;;;;;;21.71;44.75;100035.55;117297;1185;23295;-66
2022/08/28 00:53:27;;;;;;;27.00;5.50;;;;;;;21.71;44.77;100037.73;117146;1187;21898;-60
2022/08/28 00:56:00;;;;;;;22.80;6.70;;;;;;;21.70;44.83;100036.70;117132;1188;22104;-66
2022/08/28 00:58:30;;;;;;;22.80;6.60;;;;;;;21.68;44.90;100037.50;117084;1185;21937;-60
2022/08/28 01:00:59;;;;;;;19.70;5.70;;;;;;;21.66;44.90;100037.99;117294;1185;24242;-61
2022/08/28 01:03:27;;;;;;;26.50;7.10;;;;;;;21.65;44.97;100037.16;117156;1188;23231;-60
2022/08/28 01:05:54;;;;;;;20.50;6.60;;;;;;;21.64;45.06;100039.53;117290;1186;23554;-65
2022/08/28 01:08:21;;;;;;;30.50;6.70;;;;;;;21.63;45.18;100037.52;117047;1183;23450;-65
2022/08/28 01:10:52;;;;;;;32.00;6.90;;;;;;;21.61;45.18;100040.61;117322;1185;21974;-66
2022/08/28 01:13:21;;;;;;;26.30;6.30;;;;;;;21.60;45.17;100043.05;117318;1183;21858;-65
2022/08/28 01:15:48;;;;;;;25.20;6.50;;;;;;;21.59;45.26;100043.61;117348;1183;23854;-65
2022/08/28 01:18:15;;;;;;;26.00;5.90;;;;;;;21.57;45.21;100044.27;117140;1188;22928;-65
2022/08/28 01:20:50;;;;;;;26.50;6.80;;;;;;;21.55;45.19;100040.27;117128;1188;21879;-60
2022/08/28 01:23:36;;;;;;;29.40;7.50;;;;;;;21.54;45.30;100040.00;117118;1183;21848;-65
2022/08/28 01:26:03;;;;;;;27.80;6.70;;;;;;;21.51;45.40;100037.33;117321;1185;23553;-65
2022/08/28 01:28:38;;;;;;;32.40;7.50;;;;;;;21.47;45.42;100036.52;117322;1185;22161;-66
2022/08/28 01:31:09;;;;;;;29.40;6.30;;;;;;;21.43;45.41;100038.17;117316;1187;21883;-65
2022/08/28 01:33:36;;;;;;;27.00;5.50;;;;;;;21.39;45.47;100036.61;117238;1186;21958;-65
2022/08/28 01:36:09;;;;;;;26.40;7.00;;;;;;;21.37;45.50;100036.62;117184;1188;21954;-59
2022/08/28 01:38:37;;;;;;;19.20;5.30;;;;;;;21.34;45.56;100038.54;117316;1182;23595;-60
2022/08/28 01:41:04;;;;;;;27.00;5.90;;;;;;;21.33;45.81;100037.02;117314;1182;23576;-65
2022/08/28 01:43:31;;;;;;;21.30;6.30;;;;;;;21.35;45.78;100037.81;117341;1186;22756;-59
2022/08/28 01:46:00;;;;;;;20.70;6.00;;;;;;;21.37;45.69;100037.27;117287;1185;23461;-65
2022/08/28 01:48:28;;;;;;;23.70;6.10;;;;;;;21.40;45.64;100037.14;117330;1182;21854;-65
2022/08/28 01:50:56;;;;;;;18.50;6.10;;;;;;;21.37;45.58;100036.43;117322;1184;21857;-65
2022/08/28 01:53:25;;;;;;;23.00;6.40;;;;;;;21.29;45.54;100035.67;117407;1186;24194;-59
2022/08/28 01:56:00;;;;;;;25.40;6.10;;;;;;;21.17;45.53;100037.30;117363;1185;21864;-66
2022/08/28 01:58:28;;;;;;;25.20;6.40;;;;;;;21.01;45.55;100036.86;117300;1185;22924;-65
2022/08/28 02:00:56;;;;;;;19.20;5.10;;;;;;;20.89;45.69;100038.98;117216;1187;23475;-65
2022/08/28 02:03:23;;;;;;;25.70;5.90;;;;;;;20.84;45.89;100041.27;117329;1182;24254;-66
2022/08/28 02:05:50;;;;;;;23.70;6.60;;;;;;;20.80;46.01;100041.48;117319;1183;23357;-60
2022/08/28 02:08:17;;;;;;;21.00;6.00;;;;;;;20.76;46.12;100042.04;117280;1182;22639;-60
2022/08/28 02:10:44;;;;;;;21.00;6.40;;;;;;;20.75;46.30;100037.15;117332;1183;24162;-60
2022/08/28 02:13:11;;;;;;;25.70;6.00;;;;;;;20.72;46.29;100032.66;117295;1186;21861;-66
2022/08/28 02:15:40;;;;;;;31.30;6.40;;;;;;;20.70;46.36;100034.05;117384;1186;24239;-66
2022/08/28 02:18:09;;;;;;;19.30;7.20;;;;;;;20.66;46.39;100030.91;117420;1185;21853;-66
2022/08/28 02:20:36;;;;;;;18.60;5.70;;;;;;;20.63;46.48;100032.66;117400;1183;21866;-66
2022/08/28 02:23:03;;;;;;;29.50;6.60;;;;;;;20.62;46.57;100035.60;117327;1184;23563;-66
2022/08/28 02:25:30;;;;;;;24.30;6.80;;;;;;;20.60;46.57;100035.54;117342;1183;22913;-60
2022/08/28 02:27:58;;;;;;;25.10;6.40;;;;;;;20.58;46.61;100038.70;117322;1185;22821;-65
2022/08/28 02:30:25;;;;;;;22.50;5.40;;;;;;;20.56;46.68;100040.02;117393;1186;22714;-65
2022/08/28 02:32:52;;;;;;;24.20;6.70;;;;;;;20.55;46.72;100040.99;117319;1186;22823;-60
2022/08/28 02:35:20;;;;;;;34.00;8.00;;;;;;;20.54;46.86;100047.98;117352;1186;21854;-60
2022/08/28 02:37:48;;;;;;;30.20;7.30;;;;;;;20.54;46.87;100049.95;117356;1185;23579;-66
2022/08/28 02:40:17;;;;;;;23.30;6.50;;;;;;;20.54;46.92;100051.38;117327;1186;22851;-66
2022/08/28 02:42:44;;;;;;;17.60;5.80;;;;;;;20.53;46.96;100054.48;117328;1182;22926;-66
2022/08/28 02:45:12;;;;;;;32.40;6.70;;;;;;;20.52;47.03;100058.45;117318;1186;24281;-60
2022/08/28 02:47:39;;;;;;;21.60;6.90;;;;;;;20.51;47.03;100060.85;117330;1186;22715;-60
2022/08/28 02:50:07;;;;;;;23.20;6.80;;;;;;;20.50;47.17;100061.77;117349;1183;24251;-65
2022/08/28 02:52:36;;;;;;;26.80;6.30;;;;;;;20.49;47.22;100063.95;117419;1186;21877;-65
2022/08/28 02:55:05;;;;;;;22.40;6.40;;;;;;;20.49;47.19;100061.33;117327;1186;22993;-59
2022/08/28 02:57:32;;;;;;;32.90;6.70;;;;;;;20.48;47.30;100060.98;117306;1186;23486;-65
2022/08/28 02:59:59;;;;;;;23.50;5.90;;;;;;;20.47;47.38;100062.12;117292;1185;22645;-65
2022/08/28 03:02:25;;;;;;;25.60;6.80;;;;;;;20.47;47.44;100060.36;117251;1185;22826;-65
2022/08/28 03:04:54;;;;;;;31.00;6.60;;;;;;;20.48;47.40;100064.38;117272;1185;21894;-65
2022/08/28 03:07:21;;;;;;;29.00;7.50;;;;;;;20.57;47.28;100063.14;117339;1186;23608;-59
2022/08/28 03:09:49;;;;;;;26.90;6.40;;;;;;;20.64;47.19;100066.83;117278;1186;22646;-59
2022/08/28 03:12:16;;;;;;;24.70;6.40;;;;;;;20.68;47.37;100070.89;117350;1182;23449;-59
2022/08/28 03:14:43;;;;;;;26.50;6.10;;;;;;;20.69;47.23;100072.84;117321;1186;22621;-60
2022/08/28 03:17:10;;;;;;;22.30;6.10;;;;;;;20.57;47.39;100067.94;117378;1185;21854;-65
2022/08/28 03:19:38;;;;;;;22.40;6.80;;;;;;;20.53;47.50;100068.22;117278;1183;23554;-66
2022/08/28 03:22:05;;;;;;;33.80;6.90;;;;;;;20.48;47.49;100069.00;117934;1186;23526;-60
2022/08/28 03:24:34;;;;;;;32.40;6.80;;;;;;;20.45;47.58;100070.60;117971;1184;22965;-59
2022/08/28 03:27:01;;;;;;;26.70;6.80;;;;;;;20.45;47.55;100064.40;119406;1182;22301;-60
2022/08/28 03:29:28;;;;;;;27.10;6.00;;;;;;;20.47;47.58;100063.90;119418;1184;21826;-60
2022/08/28 03:31:55;;;;;;;35.20;6.80;;;;;;;20.51;47.62;100066.20;117313;1184;23452;-65
2022/08/28 03:34:22;;;;;;;30.10;7.20;;;;;;;20.55;47.52;100067.92;117345;1183;22941;-60
2022/08/28 03:36:50;;;;;;;31.30;7.40;;;;;;;20.60;47.63;100068.85;117376;1185;23688;-65
2022/08/28 03:39:18;;;;;;;33.20;6.30;;;;;;;20.65;47.54;100070.38;117319;1186;22807;-60
2022/08/28 03:41:45;;;;;;;29.80;6.70;;;;;;;20.68;47.51;100072.65;117381;1186;23431;-65
2022/08/28 03:44:12;;;;;;;21.60;6.50;;;;;;;20.71;47.48;100078.89;117370;1183;22914;-60
2022/08/28 03:46:39;;;;;;;29.00;7.20;;;;;;;20.75;47.51;100081.36;117427;1186;23074;-66
2022/08/28 03:49:07;;;;;;;23.90;7.00;;;;;;;20.80;47.67;100082.66;117397;1185;23781;-65
2022/08/28 03:51:34;;;;;;;24.40;6.70;;;;;;;20.87;47.65;100082.48;117388;1186;23553;-60
2022/08/28 03:54:02;;;;;;;23.60;6.30;;;;;;;20.92;47.61;100082.87;117320;1188;23595;-66
2022/08/28 03:56:30;;;;;;;20.30;6.80;;;;;;;20.98;47.55;100082.00;117419;1183;21852;-65
2022/08/28 03:59:01;;;;;;;28.50;6.80;;;;;;;21.05;47.36;100081.56;117456;1186;21860;-66
2022/08/28 04:01:29;;;;;;;27.80;6.70;;;;;;;21.10;47.54;100082.14;117308;1186;23560;-66
2022/08/28 04:03:56;;;;;;;23.80;6.30;;;;;;;21.18;47.50;100083.77;117129;1186;23506;-66
2022/08/28 04:06:23;;;;;;;20.80;5.60;;;;;;;21.27;47.56;100087.02;119191;1187;22248;-66
2022/08/28 04:08:50;;;;;;;23.80;6.30;;;;;;;21.36;47.53;100086.10;119380;1185;21786;-68
2022/08/28 04:11:17;;;;;;;23.20;5.50;;;;;;;21.45;47.32;100086.81;118645;1183;23605;-62
2022/08/28 04:13:44;;;;;;;22.80;5.80;;;;;;;21.54;47.21;100081.04;117274;1185;23596;-61
2022/08/28 04:16:15;;;;;;;18.30;6.10;;;;;;;21.62;47.24;100081.83;119372;1186;22138;-67
2022/08/28 04:18:42;;;;;;;27.50;6.90;;;;;;;21.69;47.24;100079.39;119227;1184;21850;-62
2022/08/28 04:21:17;;;;;;;26.10;6.40;;;;;;;21.76;47.22;100077.77;119389;1185;22171;-67
2022/08/28 04:23:45;;;;;;;26.10;6.20;;;;;;;21.84;47.30;100083.10;117398;1186;22001;-66
2022/08/28 04:26:14;;;;;;;26.20;6.30;;;;;;;21.90;47.42;100081.43;117429;1182;22401;-61
2022/08/28 04:28:41;;;;;;;21.00;5.20;;;;;;;21.97;47.50;100080.10;117457;1185;22924;-61
2022/08/28 04:31:09;;;;;;;22.10;5.50;;;;;;;22.06;47.48;100081.19;117981;1182;21853;-61
2022/08/28 04:33:36;;;;;;;26.20;6.00;;;;;;;22.15;47.67;100078.25;117388;1185;21905;-67
2022/08/28 04:36:07;;;;;;;29.10;6.20;;;;;;;22.25;47.79;100077.46;117418;1186;23679;-66
2022/08/28 04:38:35;;;;;;;25.30;5.10;;;;;;;22.34;47.68;100078.78;117441;1183;21857;-60
2022/08/28 04:41:09;;;;;;;22.70;5.80;;;;;;;22.44;47.70;100077.48;117382;1185;23721;-60
2022/08/28 04:43:36;;;;;;;20.50;6.10;;;;;;;22.53;47.58;100073.84;117352;1186;24166;-60
2022/08/28 04:46:05;;;;;;;21.40;6.20;;;;;;;22.63;47.62;100073.38;117389;1182;24191;-60
2022/08/28 04:48:34;;;;;;;27.40;6.50;;;;;;;22.73;47.63;100075.48;117391;1180;22914;-60
2022/08/28 04:51:08;;;;;;;17.90;5.60;;;;;;;22.84;47.68;100075.83;117389;1186;23028;-59
2022/08/28 04:53:35;;;;;;;21.30;5.40;;;;;;;22.97;47.57;100076.42;117343;1186;23546;-60
2022/08/28 04:56:04;;;;;;;20.90;5.60;;;;;;;23.09;47.48;100072.72;117395;1186;22441;-60
2022/08/28 04:58:32;;;;;;;20.20;5.00;;;;;;;23.22;47.38;100070.75;117450;1185;21851;-60
2022/08/28 05:01:20;;;;;;;24.50;5.90;;;;;;;23.34;47.20;100073.53;117389;1186;23552;-65
2022/08/28 05:03:53;;;;;;;14.20;4.40;;;;;;;23.47;47.28;100077.02;117483;1186;21863;-66
2022/08/28 05:06:21;;;;;;;24.70;5.30;;;;;;;23.62;47.21;100076.91;117319;1185;21899;-65
2022/08/28 05:08:48;;;;;;;19.70;5.20;;;;;;;23.74;47.15;100079.79;117298;1186;21859;-65
2022/08/28 05:11:18;;;;;;;24.50;4.70;;;;;;;23.86;47.03;100081.42;117253;1184;22976;-62
2022/08/28 05:14:00;;;;;;;27.70;6.80;;;;;;;24.02;46.91;100083.21;119496;1185;21773;-61
2022/08/28 05:16:27;;;;;;;23.60;5.80;;;;;;;24.24;46.87;100083.42;119484;1184;21827;-61
2022/08/28 05:18:59;;;;;;;16.80;4.70;;;;;;;24.44;46.85;100082.93;119415;1185;21803;-66
2022/08/28 05:21:27;;;;;;;22.70;5.40;;;;;;;24.66;46.61;100076.52;119401;1185;21693;-61
2022/08/28 05:23:55;;;;;;;25.50;5.50;;;;;;;24.82;46.25;100081.38;119375;1186;21787;-61
2022/08/28 05:26:22;;;;;;;25.90;6.80;;;;;;;24.95;46.14;100084.13;118515;1186;23028;-61
2022/08/28 05:28:56;;;;;;;23.20;5.80;;;;;;;25.16;45.94;100085.61;117284;1185;23560;-65
2022/08/28 05:31:24;;;;;;;22.10;5.20;;;;;;;25.36;45.80;100086.55;117269;1185;21857;-60
2022/08/28 05:33:52;;;;;;;19.70;5.50;;;;;;;25.53;45.60;100084.51;117108;1187;21866;-60
2022/08/28 05:36:21;;;;;;;17.90;4.80;;;;;;;25.67;45.47;100087.35;117283;1182;23529;-60
2022/08/28 05:38:49;;;;;;;21.40;6.20;;;;;;;25.80;45.45;100083.23;117185;1185;22666;-60
2022/08/28 05:41:20;;;;;;;21.60;5.10;;;;;;;26.00;45.57;100081.79;117432;1186;22988;-60
2022/08/28 05:43:47;;;;;;;22.20;5.10;;;;;;;26.26;45.09;100087.28;117398;1182;22947;-61
2022/08/28 05:46:15;;;;;;;23.80;5.50;;;;;;;26.51;44.78;100087.16;117350;1186;24172;-66
2022/08/28 05:48:42;;;;;;;27.80;6.30;;;;;;;26.68;44.64;100091.64;117321;1187;21899;-66
2022/08/28 05:51:11;;;;;;;17.50;5.50;;;;;;;26.84;44.49;100094.48;117452;1185;22921;-61
2022/08/28 05:53:40;;;;;;;20.20;4.70;;;;;;;27.04;44.58;100095.48;117433;1182;22960;-67
2022/08/28 05:56:08;;;;;;;22.70;4.50;;;;;;;27.23;44.20;100095.09;117348;1185;22623;-67
2022/08/28 05:58:36;;;;;;;23.70;5.10;;;;;;;27.38;44.07;100092.58;117414;1183;23452;-61
2022/08/28 06:01:08;;;;;;;18.60;5.00;;;;;;;27.58;43.64;100094.26;117453;1183;21913;-67
2022/08/28 06:03:36;;;;;;;21.70;5.40;;;;;;;27.78;43.59;100099.94;117417;1182;24168;-66
2022/08/28 06:06:04;;;;;;;16.30;5.50;;;;;;;28.01;43.64;100099.10;117363;1183;21854;-67
2022/08/28 06:08:31;;;;;;;19.60;4.20;;;;;;;28.25;43.45;100103.12;117440;1182;22928;-68
2022/08/28 06:11:00;;;;;;;16.90;5.50;;;;;;;28.48;43.00;100102.08;117147;1184;22929;-67
2022/08/28 06:13:30;;;;;;;19.10;4.00;;;;;;;28.62;42.64;100103.38;117052;1184;22922;-67
2022/08/28 06:15:57;;;;;;;18.10;5.00;;;;;;;28.79;42.71;100103.27;117375;1185;21871;-67
2022/08/28 06:18:24;;;;;;;26.10;5.90;;;;;;;28.99;42.45;100098.66;117085;1187;21896;-67
2022/08/28 06:20:52;;;;;;;17.90;5.00;;;;;;;29.18;42.43;100100.64;118630;1186;23606;-61
2022/08/28 06:23:20;;;;;;;17.20;5.30;;;;;;;29.44;42.30;100099.89;118915;1184;22981;-67
2022/08/28 06:25:50;;;;;;;;;;;;;;;29.66;41.77;100096.45;117217;1186;21840;-62
2022/08/28 06:28:22;;;;;;;19.30;4.70;;;;;;;29.81;41.73;100096.27;117390;1186;23557;-68
2022/08/28 06:30:50;;;;;;;21.10;4.80;;;;;;;29.98;41.71;100099.84;117330;1185;21864;-69
2022/08/28 06:33:38;;;;;;;23.60;5.80;;;;;;;30.13;41.26;100101.83;117351;1186;22309;-62
2022/08/28 06:36:06;;;;;;;15.20;4.70;;;;;;;30.26;41.03;100101.16;118114;1184;22928;-68
2022/08/28 06:38:34;;;;;;;18.50;4.40;;;;;;;30.42;40.83;100107.13;117311;1183;21859;-68
2022/08/28 06:41:01;;;;;;;18.20;5.80;;;;;;;30.60;40.76;100110.02;117337;1186;23582;-61
2022/08/28 06:43:28;;;;;;;14.40;4.70;;;;;;;30.75;40.51;100113.21;117358;1185;22671;-61
2022/08/28 06:45:56;;;;;;;18.80;5.00;;;;;;;30.86;40.40;100115.38;117351;1186;23555;-68
2022/08/28 06:48:25;;;;;;;20.50;5.60;;;;;;;31.01;40.29;100118.05;117372;1186;22169;-62
2022/08/28 06:50:53;;;;;;;19.40;5.20;;;;;;;31.15;40.08;100117.17;117356;1185;23554;-62
2022/08/28 06:53:29;;;;;;;17.70;4.70;;;;;;;31.27;39.76;100116.70;117482;1182;22927;-68
2022/08/28 06:55:56;;;;;;;15.10;4.80;;;;;;;31.42;39.49;100119.66;117411;1185;23576;-64
2022/08/28 06:58:23;;;;;;;20.30;5.10;;;;;;;31.54;39.02;100124.40;117350;1186;22175;-62
2022/08/28 07:00:51;;;;;;;20.00;5.10;;;;;;;31.59;38.97;100125.27;117312;1186;23113;-69
2022/08/28 07:03:29;;;;;;;25.70;5.50;;;;;;;31.74;38.88;100122.70;117366;1186;23669;-62
2022/08/28 07:05:57;;;;;;;23.20;5.50;;;;;;;32.00;38.81;100122.80;117570;1185;23640;-62
2022/08/28 07:08:26;;;;;;;20.80;5.50;;;;;;;32.24;38.68;100126.27;117130;1182;23650;-69
2022/08/28 07:11:13;;;;;;;19.10;4.90;;;;;;;32.40;38.19;100125.20;117316;1186;22968;-68
2022/08/28 07:13:42;;;;;;;17.20;4.70;;;;;;;32.53;38.09;100127.12;117348;1183;21868;-68
2022/08/28 07:16:10;;;;;;;31.80;5.50;;;;;;;32.75;38.23;100124.69;117350;1186;23075;-68
2022/08/28 07:18:37;;;;;;;19.20;5.50;;;;;;;32.98;37.39;100125.66;117338;1186;21878;-69
2022/08/28 07:21:05;;;;;;;21.30;4.50;;;;;;;33.15;37.38;100124.84;117190;1186;22644;-68
2022/08/28 07:23:38;;;;;;;23.40;5.20;;;;;;;33.29;37.22;100123.48;117390;1182;21878;-70
2022/08/28 07:26:08;;;;;;;20.90;4.50;;;;;;;33.48;37.01;100120.39;117415;1184;24207;-69
2022/08/28 07:28:36;;;;;;;19.50;4.90;;;;;;;33.78;36.71;100117.00;117238;1186;22926;-68
2022/08/28 07:31:05;;;;;;;17.50;4.60;;;;;;;34.03;36.50;100118.58;117771;1185;22169;-62
2022/08/28 07:33:32;;;;;;;24.00;5.20;;;;;;;34.17;35.65;100121.92;117226;1186;23526;-68
2022/08/28 07:36:00;;;;;;;18.60;5.40;;;;;;;34.24;36.06;100117.70;116987;1187;22949;-63
2022/08/28 07:38:27;;;;;;;29.10;4.80;;;;;;;34.42;36.05;100118.21;117423;1183;23558;-70
2022/08/28 07:40:55;;;;;;;18.80;4.90;;;;;;;34.54;35.24;100120.42;117260;1182;22319;-67
2022/08/28 07:46:10;;;;;;;25.90;5.80;;;;;;;34.78;34.84;100123.45;117165;1186;22899;-62
2022/08/28 07:48:38;;;;;;;21.20;5.80;;;;;;;35.00;34.27;100121.49;117331;1186;22011;-61
2022/08/28 07:51:06;;;;;;;18.30;5.10;;;;;;;35.11;33.67;100121.39;117316;1182;23155;-63
2022/08/28 07:53:36;;;;;;;21.40;4.70;;;;;;;35.18;34.34;100123.81;117080;1185;22884;-63
2022/08/28 07:56:04;;;;;;;25.90;5.30;;;;;;;35.35;34.26;100119.05;117237;1185;23682;-63
2022/08/28 07:58:31;;;;;;;21.70;5.20;;;;;;;35.52;33.68;100124.82;117307;1186;22624;-63
2022/08/28 08:01:00;;;;;;;21.10;5.30;;;;;;;35.64;33.17;100127.95;117348;1185;22712;-69
2022/08/28 08:03:29;;;;;;;29.10;5.80;;;;;;;35.71;33.12;100125.64;117244;1185;21858;-67
2022/08/28 08:05:59;;;;;;;22.00;5.10;;;;;;;35.74;32.66;100128.04;117581;1185;21858;-68
2022/08/28 08:08:27;;;;;;;;;;;;;;;35.94;33.15;100130.78;117521;1182;22092;-68
2022/08/28 08:11:06;;;;;;;30.70;5.70;;;;;;;36.25;32.84;100127.14;117592;1182;21917;-68
2022/08/28 08:13:37;;;;;;;23.60;5.10;;;;;;;36.37;31.29;100127.45;117393;1185;23475;-63
2022/08/28 08:16:10;;;;;;;24.70;5.00;;;;;;;36.33;31.42;100131.63;117403;1183;21865;-63
2022/08/28 08:18:38;;;;;;;20.00;5.70;;;;;;;36.38;31.40;100130.06;118146;1185;24162;-68
2022/08/28 08:21:08;;;;;;;25.20;5.20;;;;;;;36.50;31.42;100132.27;119371;1182;22129;-69
2022/08/28 08:23:35;;;;;;;20.40;5.40;;;;;;;36.69;31.76;100127.84;119395;1184;21845;-68
2022/08/28 08:26:06;;;;;;;24.80;5.10;;;;;;;36.91;31.68;100125.42;119006;1183;22087;-63
2022/08/28 08:28:34;;;;;;;17.60;5.70;;;;;;;37.09;30.17;100124.70;117277;1186;21864;-63
2022/08/28 08:31:28;;;;;;;22.90;5.20;;;;;;;37.17;30.35;100119.86;117348;1185;23576;-62
2022/08/28 08:34:00;;;;;;;23.40;4.90;;;;;;;37.40;30.96;100118.28;117330;1186;22897;-63
2022/08/28 08:36:27;;;;;;;23.50;5.40;;;;;;;37.57;30.66;100115.95;117348;1185;21881;-63
2022/08/28 08:38:54;;;;;;;23.70;5.60;;;;;;;37.68;30.37;100120.05;117085;1188;23560;-68
2022/08/28 08:41:31;;;;;;;19.60;4.80;;;;;;;37.78;30.14;100117.89;118974;1185;21890;-69
2022/08/28 08:44:13;;;;;;;23.60;4.80;;;;;;;37.96;30.04;100115.48;117370;1182;22000;-68
2022/08/28 08:46:45;;;;;;;19.50;4.90;;;;;;;38.14;30.01;100116.23;117338;1185;22925;-63
2022/08/28 08:49:17;;;;;;;16.80;4.90;;;;;;;38.28;29.59;100117.13;117358;1182;21845;-69
2022/08/28 08:52:10;;;;;;;23.70;5.20;;;;;;;38.42;29.39;100117.61;117315;1185;22194;-63
2022/08/28 08:54:42;;;;;;;18.70;4.30;;;;;;;38.55;29.02;100118.73;117161;1187;23558;-68
2022/08/28 08:57:11;;;;;;;23.60;5.30;;;;;;;38.62;28.95;100119.96;117346;1186;22830;-64
2022/08/28 08:59:38;;;;;;;21.70;5.10;;;;;;;38.70;28.78;100122.45;117281;1184;21857;-69
2022/08/28 09:02:21;;;;;;;19.70;5.70;;;;;;;38.75;28.61;100121.63;117222;1188;22727;-70
2022/08/28 09:05:04;;;;;;;21.10;4.50;;;;;;;38.92;28.88;100120.16;117220;1185;22656;-69
2022/08/28 09:07:55;;;;;;;18.40;5.60;;;;;;;39.16;28.65;100120.77;117228;1186;22661;-64
2022/08/28 09:10:37;;;;;;;24.40;4.90;;;;;;;39.37;28.50;100118.21;119159;1186;22626;-63
2022/08/28 09:13:31;;;;;;;16.60;4.40;;;;;;;39.57;27.93;100119.89;117315;1181;21856;-68
2022/08/28 09:15:59;;;;;;;21.70;5.10;;;;;;;39.74;27.88;100120.35;118316;1185;21857;-68
2022/08/28 09:18:27;;;;;;;22.70;4.80;;;;;;;39.90;27.76;100124.44;117357;1183;21864;-63
2022/08/28 09:20:57;;;;;;;19.50;4.80;;;;;;;40.02;27.84;100124.00;117396;1184;22899;-68
2022/08/28 09:23:26;;;;;;;23.70;5.00;;;;;;;40.11;27.62;100123.66;117387;1181;24175;-68
2022/08/28 09:26:04;;;;;;;19.40;4.70;;;;;;;40.22;27.25;100125.14;117211;1186;21866;-64
2022/08/28 09:28:35;;;;;;;17.90;4.40;;;;;;;40.23;26.76;100123.05;117321;1186;22655;-64
2022/08/28 09:31:04;;;;;;;21.30;5.10;;;;;;;40.14;26.23;100124.27;117400;1184;21911;-64
2022/08/28 09:33:38;;;;;;;26.00;6.30;;;;;;;39.87;24.40;100122.80;117336;1186;21895;-64
2022/08/28 09:36:26;;;;;;;25.10;5.90;;;;;;;39.58;25.26;100120.31;117399;1185;23581;-65
2022/08/28 09:39:26;;;;;;;22.80;5.60;;;;;;;39.35;25.19;100120.84;117015;1187;21926;-65
2022/08/28 09:45:19;;;;;;;27.50;6.40;;;;;;;39.34;25.30;100122.33;117423;1185;21908;-65
2022/08/28 09:47:54;;;;;;;22.20;5.20;;;;;;;39.34;24.32;100120.30;119193;1185;21832;-63
2022/08/28 09:50:41;;;;;;;18.40;5.70;;;;;;;39.34;24.36;100116.77;119369;1182;22227;-63
2022/08/28 09:53:13;;;;;;;21.00;5.30;;;;;;;39.39;25.08;100112.31;119177;1186;22317;-64
2022/08/28 09:56:03;;;;;;;27.30;6.50;;;;;;;39.63;24.30;100105.81;118222;1185;23570;-65
2022/08/28 09:58:40;;;;;;;22.20;5.20;;;;;;;39.79;24.80;100103.34;117303;1186;21858;-65
2022/08/28 10:01:15;;;;;;;26.20;6.70;;;;;;;40.03;24.65;100100.13;117408;1185;23033;-65
2022/08/28 10:04:16;;;;;;;21.30;4.80;;;;;;;40.31;24.00;100095.62;117135;1186;21859;-65
2022/08/28 10:07:40;;;;;;;20.80;4.70;;;;;;;40.37;24.34;100092.49;117266;1188;21862;-64
2022/08/28 10:10:34;;;;;;;27.50;5.30;;;;;;;40.67;24.26;100093.95;116707;1192;22071;-65
2022/08/28 10:13:23;;;;;;;18.80;5.20;;;;;;;40.85;23.30;100095.71;117044;1187;22096;-65
2022/08/28 10:16:08;;;;;;;21.60;5.30;;;;;;;40.94;23.72;100094.49;117029;1186;21876;-69
2022/08/28 10:18:57;;;;;;;23.00;4.50;;;;;;;41.08;24.09;100090.70;117069;1189;21969;-65
2022/08/28 10:21:31;;;;;;;20.70;4.90;;;;;;;41.37;24.13;100090.48;117275;1186;23555;-65
2022/08/28 10:24:07;;;;;;;20.20;5.40;;;;;;;41.53;23.92;100089.25;117187;1184;22094;-65
2022/08/28 10:26:49;;;;;;;18.30;4.90;;;;;;;41.65;23.93;100084.14;117163;1184;21873;-66
2022/08/28 10:29:16;;;;;;;25.60;5.70;;;;;;;41.87;23.57;100079.98;117059;1186;21860;-65
2022/08/28 10:32:25;;;;;;;21.80;5.90;;;;;;;42.06;23.44;100077.37;117159;1187;23570;-70
2022/08/28 10:35:15;;;;;;;27.40;5.80;;;;;;;41.97;23.15;100077.69;117332;1182;22938;-66
2022/08/28 10:38:01;;;;;;;25.40;5.60;;;;;;;41.88;23.34;100074.88;117296;1182;23573;-66
2022/08/28 10:40:30;;;;;;;24.70;6.20;;;;;;;41.84;23.13;100078.16;117223;1184;23170;-70
2022/08/28 10:43:08;;;;;;;25.00;4.70;;;;;;;41.90;23.01;100074.13;117347;1182;21858;-70
2022/08/28 10:45:35;;;;;;;24.50;4.80;;;;;;;42.10;23.01;100073.17;117247;1183;23682;-70
2022/08/28 10:48:26;;;;;;;23.60;4.90;;;;;;;42.22;22.81;100072.66;116948;1185;22635;-70
2022/08/28 10:51:01;;;;;;;15.80;5.20;;;;;;;42.15;21.91;100071.54;116947;1187;21877;-66
2022/08/28 10:53:43;;;;;;;28.60;6.20;;;;;;;41.76;21.82;100069.58;118331;1184;21875;-70
2022/08/28 10:56:18;;;;;;;23.50;4.90;;;;;;;41.25;21.87;100073.55;116856;1185;22913;-70
2022/08/28 10:58:48;;;;;;;18.80;4.90;;;;;;;40.95;22.24;100073.46;117297;1185;21860;-70
2022/08/28 11:01:33;;;;;;;23.00;5.50;;;;;;;40.94;21.92;100070.42;117425;1182;21948;-70
2022/08/28 11:04:02;;;;;;;20.00;4.80;;;;;;;40.69;21.52;100064.28;117367;1186;21951;-66
2022/08/28 11:06:41;;;;;;;19.30;5.60;;;;;;;40.56;22.39;100060.39;117867;1185;21858;-66
2022/08/28 11:09:26;;;;;;;20.50;5.10;;;;;;;40.82;22.65;100062.30;117284;1182;24178;-70
2022/08/28 11:12:01;;;;;;;22.80;5.40;;;;;;;41.12;22.78;100060.48;117069;1188;22838;-70
2022/08/28 11:14:33;;;;;;;20.00;5.90;;;;;;;41.42;22.94;100055.61;117275;1185;21864;-66
2022/08/28 11:17:29;;;;;;;23.40;5.60;;;;;;;41.75;22.09;100053.63;117265;1188;21856;-70
2022/08/28 11:20:14;;;;;;;19.10;5.70;;;;;;;41.93;21.93;100048.02;117372;1185;23452;-70
2022/08/28 11:22:45;;;;;;;21.50;5.30;;;;;;;42.10;21.69;100046.05;117369;1186;21848;-66
2022/08/28 11:25:30;;;;;;;24.10;5.60;;;;;;;42.11;21.18;100044.63;117295;1182;23470;-66
2022/08/28 11:28:23;;;;;;;22.60;5.10;;;;;;;41.90;21.13;100048.41;117241;1188;21857;-66
2022/08/28 11:30:56;;;;;;;22.20;5.40;;;;;;;41.79;21.08;100050.65;117364;1185;24194;-66
2022/08/28 11:33:40;;;;;;;19.90;5.10;;;;;;;41.72;21.45;100047.98;117261;1186;21865;-66
2022/08/28 11:36:20;;;;;;;20.10;5.30;;;;;;;41.72;21.70;100044.80;117357;1182;24177;-66